sensor_id;sensor_type;location;lat;lon;timestamp;P1;durP1;ratioP1;P2;durP2;ratioP2
82005;SDS011;71529;47.484;19.064;2024-02-15T00:00:36;18.77;;;9.75;;
82005;SDS011;71529;47.484;19.064;2024-02-15T00:03:08;17.73;;;10.35;;
82005;SDS011;71529;47.484;19.064;2024-02-15T00:05:39;22.42;;;10.88;;
82005;SDS011;71529;47.484;19.064;2024-02-15T00:08:08;31.35;;;12.00;;
82005;SDS011;71529;47.484;19.064;2024-02-15T00:10:37;17.80;;;11.05;;
82005;SDS011;71529;47.484;19.064;2024-02-15T00:13:06;18.55;;;11.55;;
82005;SDS011;71529;47.484;19.064;2024-02-15T00:15:35;18.77;;;10.52;;
82005;SDS011;71529;47.484;19.064;2024-02-15T00:18:04;22.77;;;11.35;;
82005;SDS011;71529;47.484;19.064;2024-02-15T00:20:36;18.83;;;10.45;;
82005;SDS011;71529;47.484;19.064;2024-02-15T00:23:05;19.38;;;11.02;;
82005;SDS011;71529;47.484;19.064;2024-02-15T00:25:35;19.63;;;11.25;;
82005;SDS011;71529;47.484;19.064;2024-02-15T00:28:04;20.52;;;11.48;;
82005;SDS011;71529;47.484;19.064;2024-02-15T00:30:34;24.42;;;12.55;;
82005;SDS011;71529;47.484;19.064;2024-02-15T00:33:03;17.85;;;11.40;;
82005;SDS011;71529;47.484;19.064;2024-02-15T00:35:35;17.30;;;10.68;;
82005;SDS011;71529;47.484;19.064;2024-02-15T00:38:04;18.70;;;11.60;;
82005;SDS011;71529;47.484;19.064;2024-02-15T00:40:34;23.48;;;11.68;;
82005;SDS011;71529;47.484;19.064;2024-02-15T00:43:03;15.35;;;10.73;;
82005;SDS011;71529;47.484;19.064;2024-02-15T00:45:32;16.38;;;11.32;;
82005;SDS011;71529;47.484;19.064;2024-02-15T00:48:01;21.67;;;11.32;;
82005;SDS011;71529;47.484;19.064;2024-02-15T00:50:32;20.48;;;11.98;;
82005;SDS011;71529;47.484;19.064;2024-02-15T00:53:03;14.15;;;10.45;;
82005;SDS011;71529;47.484;19.064;2024-02-15T00:55:32;21.42;;;10.43;;
82005;SDS011;71529;47.484;19.064;2024-02-15T00:58:01;21.63;;;10.68;;
82005;SDS011;71529;47.484;19.064;2024-02-15T01:00:30;16.60;;;9.57;;
82005;SDS011;71529;47.484;19.064;2024-02-15T01:03:00;16.05;;;9.95;;
82005;SDS011;71529;47.484;19.064;2024-02-15T01:05:28;15.10;;;9.38;;
82005;SDS011;71529;47.484;19.064;2024-02-15T01:08:00;17.52;;;9.45;;
82005;SDS011;71529;47.484;19.064;2024-02-15T01:10:29;14.90;;;8.98;;
82005;SDS011;71529;47.484;19.064;2024-02-15T01:12:59;19.73;;;10.27;;
82005;SDS011;71529;47.484;19.064;2024-02-15T01:15:28;17.65;;;11.18;;
82005;SDS011;71529;47.484;19.064;2024-02-15T01:17:57;15.23;;;11.18;;
82005;SDS011;71529;47.484;19.064;2024-02-15T01:20:27;21.67;;;11.25;;
82005;SDS011;71529;47.484;19.064;2024-02-15T01:22:56;19.13;;;11.20;;
82005;SDS011;71529;47.484;19.064;2024-02-15T01:25:27;21.65;;;10.80;;
82005;SDS011;71529;47.484;19.064;2024-02-15T01:27:57;19.00;;;11.40;;
82005;SDS011;71529;47.484;19.064;2024-02-15T01:30:27;19.20;;;11.40;;
82005;SDS011;71529;47.484;19.064;2024-02-15T01:32:57;20.17;;;12.27;;
82005;SDS011;71529;47.484;19.064;2024-02-15T01:35:27;24.35;;;12.93;;
82005;SDS011;71529;47.484;19.064;2024-02-15T01:37:56;34.15;;;16.38;;
82005;SDS011;71529;47.484;19.064;2024-02-15T01:40:27;30.20;;;17.45;;
82005;SDS011;71529;47.484;19.064;2024-02-15T01:42:56;25.92;;;16.75;;
82005;SDS011;71529;47.484;19.064;2024-02-15T01:45:26;31.27;;;19.33;;
82005;SDS011;71529;47.484;19.064;2024-02-15T01:47:56;32.97;;;17.50;;
82005;SDS011;71529;47.484;19.064;2024-02-15T01:50:27;34.83;;;18.95;;
82005;SDS011;71529;47.484;19.064;2024-02-15T01:52:58;30.45;;;19.00;;
82005;SDS011;71529;47.484;19.064;2024-02-15T01:55:30;33.53;;;20.48;;
82005;SDS011;71529;47.484;19.064;2024-02-15T01:58:00;46.60;;;22.92;;
82005;SDS011;71529;47.484;19.064;2024-02-15T02:00:29;36.63;;;20.75;;
82005;SDS011;71529;47.484;19.064;2024-02-15T02:02:58;36.67;;;22.10;;
82005;SDS011;71529;47.484;19.064;2024-02-15T02:05:31;33.50;;;21.33;;
82005;SDS011;71529;47.484;19.064;2024-02-15T02:08:00;36.78;;;20.67;;
82005;SDS011;71529;47.484;19.064;2024-02-15T02:10:37;40.28;;;20.52;;
82005;SDS011;71529;47.484;19.064;2024-02-15T02:13:07;36.20;;;20.45;;
82005;SDS011;71529;47.484;19.064;2024-02-15T02:15:38;36.47;;;20.98;;
82005;SDS011;71529;47.484;19.064;2024-02-15T02:18:07;40.20;;;20.90;;
82005;SDS011;71529;47.484;19.064;2024-02-15T02:20:36;33.53;;;20.75;;
82005;SDS011;71529;47.484;19.064;2024-02-15T02:23:07;42.88;;;21.35;;
82005;SDS011;71529;47.484;19.064;2024-02-15T02:25:41;37.20;;;19.92;;
82005;SDS011;71529;47.484;19.064;2024-02-15T02:28:11;36.42;;;20.30;;
82005;SDS011;71529;47.484;19.064;2024-02-15T02:30:41;37.35;;;19.77;;
82005;SDS011;71529;47.484;19.064;2024-02-15T02:33:11;41.28;;;21.17;;
82005;SDS011;71529;47.484;19.064;2024-02-15T02:35:44;37.10;;;18.93;;
82005;SDS011;71529;47.484;19.064;2024-02-15T02:38:14;36.88;;;20.15;;
82005;SDS011;71529;47.484;19.064;2024-02-15T02:40:46;39.33;;;20.30;;
82005;SDS011;71529;47.484;19.064;2024-02-15T02:43:15;44.20;;;20.88;;
82005;SDS011;71529;47.484;19.064;2024-02-15T02:45:44;34.53;;;19.73;;
82005;SDS011;71529;47.484;19.064;2024-02-15T02:48:13;37.70;;;20.80;;
82005;SDS011;71529;47.484;19.064;2024-02-15T02:50:43;36.63;;;21.05;;
82005;SDS011;71529;47.484;19.064;2024-02-15T02:53:13;37.38;;;21.15;;
82005;SDS011;71529;47.484;19.064;2024-02-15T02:55:41;33.75;;;20.65;;
82005;SDS011;71529;47.484;19.064;2024-02-15T02:58:13;41.03;;;22.55;;
82005;SDS011;71529;47.484;19.064;2024-02-15T03:00:42;74.38;;;41.35;;
82005;SDS011;71529;47.484;19.064;2024-02-15T03:03:11;49.08;;;25.00;;
82005;SDS011;71529;47.484;19.064;2024-02-15T03:05:41;43.63;;;23.20;;
82005;SDS011;71529;47.484;19.064;2024-02-15T03:08:10;36.35;;;21.35;;
82005;SDS011;71529;47.484;19.064;2024-02-15T03:10:39;42.13;;;23.23;;
82005;SDS011;71529;47.484;19.064;2024-02-15T03:13:08;37.70;;;22.45;;
82005;SDS011;71529;47.484;19.064;2024-02-15T03:15:40;42.85;;;24.10;;
82005;SDS011;71529;47.484;19.064;2024-02-15T03:18:09;46.28;;;26.20;;
82005;SDS011;71529;47.484;19.064;2024-02-15T03:20:38;42.92;;;23.90;;
82005;SDS011;71529;47.484;19.064;2024-02-15T03:23:07;41.90;;;23.42;;
82005;SDS011;71529;47.484;19.064;2024-02-15T03:25:37;43.38;;;22.63;;
82005;SDS011;71529;47.484;19.064;2024-02-15T03:28:06;38.60;;;21.75;;
82005;SDS011;71529;47.484;19.064;2024-02-15T03:30:34;37.90;;;21.60;;
82005;SDS011;71529;47.484;19.064;2024-02-15T03:33:06;36.08;;;22.17;;
82005;SDS011;71529;47.484;19.064;2024-02-15T03:35:35;32.15;;;19.75;;
82005;SDS011;71529;47.484;19.064;2024-02-15T03:38:05;34.55;;;21.08;;
82005;SDS011;71529;47.484;19.064;2024-02-15T03:40:34;40.33;;;19.73;;
82005;SDS011;71529;47.484;19.064;2024-02-15T03:43:07;34.45;;;20.60;;
82005;SDS011;71529;47.484;19.064;2024-02-15T03:45:36;32.08;;;20.35;;
82005;SDS011;71529;47.484;19.064;2024-02-15T03:48:09;30.95;;;20.48;;
82005;SDS011;71529;47.484;19.064;2024-02-15T03:50:40;36.88;;;20.98;;
82005;SDS011;71529;47.484;19.064;2024-02-15T03:53:09;36.47;;;19.60;;
82005;SDS011;71529;47.484;19.064;2024-02-15T03:55:39;32.17;;;20.45;;
82005;SDS011;71529;47.484;19.064;2024-02-15T03:58:08;34.47;;;21.35;;
82005;SDS011;71529;47.484;19.064;2024-02-15T04:00:40;35.00;;;19.67;;
82005;SDS011;71529;47.484;19.064;2024-02-15T04:03:13;31.45;;;20.20;;
82005;SDS011;71529;47.484;19.064;2024-02-15T04:05:41;34.33;;;21.27;;
82005;SDS011;71529;47.484;19.064;2024-02-15T04:08:10;33.63;;;20.13;;
82005;SDS011;71529;47.484;19.064;2024-02-15T04:10:42;30.73;;;19.30;;
82005;SDS011;71529;47.484;19.064;2024-02-15T04:13:11;30.25;;;18.40;;
82005;SDS011;71529;47.484;19.064;2024-02-15T04:15:41;34.67;;;19.65;;
82005;SDS011;71529;47.484;19.064;2024-02-15T04:18:15;28.90;;;17.40;;
82005;SDS011;71529;47.484;19.064;2024-02-15T04:20:44;33.45;;;18.58;;
82005;SDS011;71529;47.484;19.064;2024-02-15T04:23:14;34.08;;;17.92;;
82005;SDS011;71529;47.484;19.064;2024-02-15T04:25:45;28.33;;;18.08;;
82005;SDS011;71529;47.484;19.064;2024-02-15T04:28:16;33.70;;;19.90;;
82005;SDS011;71529;47.484;19.064;2024-02-15T04:30:46;32.55;;;17.73;;
82005;SDS011;71529;47.484;19.064;2024-02-15T04:33:17;27.30;;;18.10;;
82005;SDS011;71529;47.484;19.064;2024-02-15T04:35:46;32.63;;;19.52;;
82005;SDS011;71529;47.484;19.064;2024-02-15T04:38:16;30.95;;;19.45;;
82005;SDS011;71529;47.484;19.064;2024-02-15T04:40:45;27.30;;;17.67;;
82005;SDS011;71529;47.484;19.064;2024-02-15T04:43:14;32.00;;;18.20;;
82005;SDS011;71529;47.484;19.064;2024-02-15T04:45:44;27.08;;;17.80;;
82005;SDS011;71529;47.484;19.064;2024-02-15T04:48:13;32.40;;;18.60;;
82005;SDS011;71529;47.484;19.064;2024-02-15T04:50:47;32.20;;;17.67;;
82005;SDS011;71529;47.484;19.064;2024-02-15T04:53:17;34.78;;;18.40;;
82005;SDS011;71529;47.484;19.064;2024-02-15T04:55:47;27.55;;;17.85;;
82005;SDS011;71529;47.484;19.064;2024-02-15T04:58:16;32.75;;;18.63;;
82005;SDS011;71529;47.484;19.064;2024-02-15T05:00:45;34.35;;;17.48;;
82005;SDS011;71529;47.484;19.064;2024-02-15T05:03:19;31.48;;;19.67;;
82005;SDS011;71529;47.484;19.064;2024-02-15T05:05:51;28.58;;;17.52;;
82005;SDS011;71529;47.484;19.064;2024-02-15T05:08:19;35.65;;;19.80;;
82005;SDS011;71529;47.484;19.064;2024-02-15T05:10:48;33.20;;;19.27;;
82005;SDS011;71529;47.484;19.064;2024-02-15T05:13:23;27.45;;;19.00;;
82005;SDS011;71529;47.484;19.064;2024-02-15T05:15:53;28.17;;;18.33;;
82005;SDS011;71529;47.484;19.064;2024-02-15T05:18:22;30.38;;;17.65;;
82005;SDS011;71529;47.484;19.064;2024-02-15T05:20:54;28.35;;;19.42;;
82005;SDS011;71529;47.484;19.064;2024-02-15T05:23:23;30.15;;;18.00;;
82005;SDS011;71529;47.484;19.064;2024-02-15T05:25:52;31.92;;;18.63;;
82005;SDS011;71529;47.484;19.064;2024-02-15T05:28:22;26.20;;;18.45;;
82005;SDS011;71529;47.484;19.064;2024-02-15T05:31:08;28.33;;;18.15;;
82005;SDS011;71529;47.484;19.064;2024-02-15T05:33:37;30.58;;;17.52;;
82005;SDS011;71529;47.484;19.064;2024-02-15T05:36:10;26.77;;;16.98;;
82005;SDS011;71529;47.484;19.064;2024-02-15T05:38:40;28.92;;;17.55;;
82005;SDS011;71529;47.484;19.064;2024-02-15T05:41:11;27.17;;;17.98;;
82005;SDS011;71529;47.484;19.064;2024-02-15T05:43:40;29.50;;;18.27;;
82005;SDS011;71529;47.484;19.064;2024-02-15T05:46:09;29.27;;;18.27;;
82005;SDS011;71529;47.484;19.064;2024-02-15T05:48:38;29.45;;;18.33;;
82005;SDS011;71529;47.484;19.064;2024-02-15T05:51:10;28.55;;;17.30;;
82005;SDS011;71529;47.484;19.064;2024-02-15T05:53:39;32.20;;;18.20;;
82005;SDS011;71529;47.484;19.064;2024-02-15T05:56:09;30.30;;;17.73;;
82005;SDS011;71529;47.484;19.064;2024-02-15T05:58:39;28.98;;;18.10;;
82005;SDS011;71529;47.484;19.064;2024-02-15T06:01:09;26.60;;;16.60;;
82005;SDS011;71529;47.484;19.064;2024-02-15T06:03:40;36.45;;;19.75;;
82005;SDS011;71529;47.484;19.064;2024-02-15T06:06:13;33.33;;;19.92;;
82005;SDS011;71529;47.484;19.064;2024-02-15T06:08:45;27.83;;;18.02;;
82005;SDS011;71529;47.484;19.064;2024-02-15T06:11:18;40.65;;;19.25;;
82005;SDS011;71529;47.484;19.064;2024-02-15T06:13:48;39.13;;;18.77;;
82005;SDS011;71529;47.484;19.064;2024-02-15T06:16:17;31.13;;;18.15;;
82005;SDS011;71529;47.484;19.064;2024-02-15T06:18:46;34.35;;;18.38;;
82005;SDS011;71529;47.484;19.064;2024-02-15T06:21:18;32.13;;;19.42;;
82005;SDS011;71529;47.484;19.064;2024-02-15T06:23:47;34.63;;;17.95;;
82005;SDS011;71529;47.484;19.064;2024-02-15T06:26:17;32.53;;;17.83;;
82005;SDS011;71529;47.484;19.064;2024-02-15T06:28:46;32.05;;;18.02;;
82005;SDS011;71529;47.484;19.064;2024-02-15T06:31:27;31.35;;;18.50;;
82005;SDS011;71529;47.484;19.064;2024-02-15T06:34:09;28.48;;;17.55;;
82005;SDS011;71529;47.484;19.064;2024-02-15T06:36:53;31.75;;;17.92;;
82005;SDS011;71529;47.484;19.064;2024-02-15T06:39:36;31.95;;;17.23;;
82005;SDS011;71529;47.484;19.064;2024-02-15T06:42:10;29.98;;;16.88;;
82005;SDS011;71529;47.484;19.064;2024-02-15T06:44:42;36.13;;;17.63;;
82005;SDS011;71529;47.484;19.064;2024-02-15T06:47:11;37.75;;;18.17;;
82005;SDS011;71529;47.484;19.064;2024-02-15T06:49:43;28.98;;;17.25;;
82005;SDS011;71529;47.484;19.064;2024-02-15T06:52:18;27.33;;;16.77;;
82005;SDS011;71529;47.484;19.064;2024-02-15T06:54:48;29.55;;;16.65;;
82005;SDS011;71529;47.484;19.064;2024-02-15T06:57:18;33.38;;;17.92;;
82005;SDS011;71529;47.484;19.064;2024-02-15T06:59:47;34.58;;;18.17;;
82005;SDS011;71529;47.484;19.064;2024-02-15T07:02:17;32.80;;;17.90;;
82005;SDS011;71529;47.484;19.064;2024-02-15T07:04:44;34.33;;;18.45;;
82005;SDS011;71529;47.484;19.064;2024-02-15T07:07:19;37.47;;;18.75;;
82005;SDS011;71529;47.484;19.064;2024-02-15T07:09:48;35.92;;;19.05;;
82005;SDS011;71529;47.484;19.064;2024-02-15T07:12:17;27.77;;;18.08;;
82005;SDS011;71529;47.484;19.064;2024-02-15T07:14:47;23.85;;;17.30;;
82005;SDS011;71529;47.484;19.064;2024-02-15T07:17:16;26.58;;;16.10;;
82005;SDS011;71529;47.484;19.064;2024-02-15T07:19:46;29.45;;;17.38;;
82005;SDS011;71529;47.484;19.064;2024-02-15T07:22:15;28.05;;;16.80;;
82005;SDS011;71529;47.484;19.064;2024-02-15T07:24:47;27.45;;;16.13;;
82005;SDS011;71529;47.484;19.064;2024-02-15T07:27:16;27.23;;;17.25;;
82005;SDS011;71529;47.484;19.064;2024-02-15T07:29:48;25.63;;;17.00;;
82005;SDS011;71529;47.484;19.064;2024-02-15T07:32:17;24.73;;;15.68;;
82005;SDS011;71529;47.484;19.064;2024-02-15T07:34:46;32.13;;;16.42;;
82005;SDS011;71529;47.484;19.064;2024-02-15T07:37:15;29.55;;;16.15;;
82005;SDS011;71529;47.484;19.064;2024-02-15T07:39:47;29.38;;;16.67;;
82005;SDS011;71529;47.484;19.064;2024-02-15T07:42:16;28.67;;;16.25;;
82005;SDS011;71529;47.484;19.064;2024-02-15T07:44:46;26.23;;;16.27;;
82005;SDS011;71529;47.484;19.064;2024-02-15T07:47:15;25.58;;;15.98;;
82005;SDS011;71529;47.484;19.064;2024-02-15T07:49:46;27.23;;;16.70;;
82005;SDS011;71529;47.484;19.064;2024-02-15T07:52:15;25.80;;;16.90;;
82005;SDS011;71529;47.484;19.064;2024-02-15T07:54:47;27.65;;;17.77;;
82005;SDS011;71529;47.484;19.064;2024-02-15T07:57:18;32.83;;;17.35;;
82005;SDS011;71529;47.484;19.064;2024-02-15T07:59:48;26.02;;;16.92;;
82005;SDS011;71529;47.484;19.064;2024-02-15T08:02:17;29.27;;;18.08;;
82005;SDS011;71529;47.484;19.064;2024-02-15T08:04:48;29.48;;;18.50;;
82005;SDS011;71529;47.484;19.064;2024-02-15T08:07:17;31.88;;;16.92;;
82005;SDS011;71529;47.484;19.064;2024-02-15T08:09:49;29.27;;;17.02;;
82005;SDS011;71529;47.484;19.064;2024-02-15T08:12:20;34.25;;;18.40;;
82005;SDS011;71529;47.484;19.064;2024-02-15T08:14:50;29.77;;;19.27;;
82005;SDS011;71529;47.484;19.064;2024-02-15T08:17:19;39.88;;;19.38;;
82005;SDS011;71529;47.484;19.064;2024-02-15T08:19:48;35.20;;;17.65;;
82005;SDS011;71529;47.484;19.064;2024-02-15T08:22:17;34.45;;;18.42;;
82005;SDS011;71529;47.484;19.064;2024-02-15T08:24:52;34.13;;;18.42;;
82005;SDS011;71529;47.484;19.064;2024-02-15T08:27:21;29.98;;;19.05;;
82005;SDS011;71529;47.484;19.064;2024-02-15T08:29:51;31.55;;;18.63;;
82005;SDS011;71529;47.484;19.064;2024-02-15T08:32:19;27.40;;;17.50;;
82005;SDS011;71529;47.484;19.064;2024-02-15T08:34:48;28.80;;;18.30;;
82005;SDS011;71529;47.484;19.064;2024-02-15T08:37:17;32.35;;;18.50;;
82005;SDS011;71529;47.484;19.064;2024-02-15T08:39:46;27.27;;;17.67;;
82005;SDS011;71529;47.484;19.064;2024-02-15T08:42:18;35.50;;;18.80;;
82005;SDS011;71529;47.484;19.064;2024-02-15T08:44:48;40.30;;;19.73;;
82005;SDS011;71529;47.484;19.064;2024-02-15T08:47:17;33.85;;;18.17;;
82005;SDS011;71529;47.484;19.064;2024-02-15T08:49:47;28.00;;;17.48;;
82005;SDS011;71529;47.484;19.064;2024-02-15T08:52:16;30.45;;;19.15;;
82005;SDS011;71529;47.484;19.064;2024-02-15T08:54:44;28.73;;;17.42;;
82005;SDS011;71529;47.484;19.064;2024-02-15T08:57:13;34.45;;;19.85;;
82005;SDS011;71529;47.484;19.064;2024-02-15T08:59:47;30.60;;;18.92;;
82005;SDS011;71529;47.484;19.064;2024-02-15T09:02:17;34.80;;;18.58;;
82005;SDS011;71529;47.484;19.064;2024-02-15T09:04:46;36.13;;;18.77;;
82005;SDS011;71529;47.484;19.064;2024-02-15T09:07:15;28.90;;;16.88;;
82005;SDS011;71529;47.484;19.064;2024-02-15T09:09:43;28.60;;;18.00;;
82005;SDS011;71529;47.484;19.064;2024-02-15T09:12:13;24.67;;;15.77;;
82005;SDS011;71529;47.484;19.064;2024-02-15T09:14:41;25.23;;;15.93;;
82005;SDS011;71529;47.484;19.064;2024-02-15T09:17:13;24.23;;;16.08;;
82005;SDS011;71529;47.484;19.064;2024-02-15T09:19:42;32.88;;;17.85;;
82005;SDS011;71529;47.484;19.064;2024-02-15T09:22:11;26.25;;;15.93;;
82005;SDS011;71529;47.484;19.064;2024-02-15T09:24:40;23.67;;;16.42;;
82005;SDS011;71529;47.484;19.064;2024-02-15T09:27:09;29.85;;;17.20;;
82005;SDS011;71529;47.484;19.064;2024-02-15T09:29:38;25.88;;;17.50;;
82005;SDS011;71529;47.484;19.064;2024-02-15T09:32:05;30.23;;;18.05;;
82005;SDS011;71529;47.484;19.064;2024-02-15T09:34:37;31.55;;;16.65;;
82005;SDS011;71529;47.484;19.064;2024-02-15T09:37:07;29.35;;;18.10;;
82005;SDS011;71529;47.484;19.064;2024-02-15T09:39:36;32.22;;;17.42;;
82005;SDS011;71529;47.484;19.064;2024-02-15T09:42:05;28.88;;;17.88;;
82005;SDS011;71529;47.484;19.064;2024-02-15T09:44:35;35.83;;;18.73;;
82005;SDS011;71529;47.484;19.064;2024-02-15T09:47:06;45.20;;;18.27;;
82005;SDS011;71529;47.484;19.064;2024-02-15T09:49:38;28.40;;;18.77;;
82005;SDS011;71529;47.484;19.064;2024-02-15T09:52:08;28.23;;;20.27;;
82005;SDS011;71529;47.484;19.064;2024-02-15T09:54:42;31.45;;;19.52;;
82005;SDS011;71529;47.484;19.064;2024-02-15T09:57:12;35.00;;;19.65;;
82005;SDS011;71529;47.484;19.064;2024-02-15T09:59:41;29.92;;;18.90;;
82005;SDS011;71529;47.484;19.064;2024-02-15T10:02:10;32.08;;;18.85;;
82005;SDS011;71529;47.484;19.064;2024-02-15T10:04:42;35.08;;;19.95;;
82005;SDS011;71529;47.484;19.064;2024-02-15T10:07:12;35.47;;;20.20;;
82005;SDS011;71529;47.484;19.064;2024-02-15T10:09:44;32.95;;;19.23;;
82005;SDS011;71529;47.484;19.064;2024-02-15T10:12:12;31.70;;;19.10;;
82005;SDS011;71529;47.484;19.064;2024-02-15T10:14:46;29.55;;;18.75;;
82005;SDS011;71529;47.484;19.064;2024-02-15T10:17:18;30.05;;;19.67;;
82005;SDS011;71529;47.484;19.064;2024-02-15T10:22:37;36.60;;;20.35;;
82005;SDS011;71529;47.484;19.064;2024-02-15T10:25:12;28.88;;;17.88;;
82005;SDS011;71529;47.484;19.064;2024-02-15T10:27:42;28.77;;;17.38;;
82005;SDS011;71529;47.484;19.064;2024-02-15T10:30:15;31.98;;;17.45;;
82005;SDS011;71529;47.484;19.064;2024-02-15T10:32:45;34.10;;;19.02;;
82005;SDS011;71529;47.484;19.064;2024-02-15T10:35:21;28.27;;;17.15;;
82005;SDS011;71529;47.484;19.064;2024-02-15T10:37:51;23.42;;;17.98;;
82005;SDS011;71529;47.484;19.064;2024-02-15T10:40:19;25.08;;;17.65;;
82005;SDS011;71529;47.484;19.064;2024-02-15T10:42:50;26.77;;;17.60;;
82005;SDS011;71529;47.484;19.064;2024-02-15T10:45:22;28.00;;;18.37;;
82005;SDS011;71529;47.484;19.064;2024-02-15T10:47:51;26.77;;;18.00;;
82005;SDS011;71529;47.484;19.064;2024-02-15T10:50:22;33.22;;;18.58;;
82005;SDS011;71529;47.484;19.064;2024-02-15T10:52:53;27.67;;;17.33;;
82005;SDS011;71529;47.484;19.064;2024-02-15T10:55:31;27.85;;;17.13;;
82005;SDS011;71529;47.484;19.064;2024-02-15T10:58:07;29.02;;;17.60;;
82005;SDS011;71529;47.484;19.064;2024-02-15T11:00:36;27.52;;;17.52;;
82005;SDS011;71529;47.484;19.064;2024-02-15T11:03:08;24.85;;;17.58;;
82005;SDS011;71529;47.484;19.064;2024-02-15T11:05:46;29.05;;;17.85;;
82005;SDS011;71529;47.484;19.064;2024-02-15T11:08:14;26.45;;;18.67;;
82005;SDS011;71529;47.484;19.064;2024-02-15T11:10:44;25.52;;;17.13;;
82005;SDS011;71529;47.484;19.064;2024-02-15T11:13:13;30.25;;;17.25;;
82005;SDS011;71529;47.484;19.064;2024-02-15T11:15:45;28.50;;;18.15;;
82005;SDS011;71529;47.484;19.064;2024-02-15T11:21:17;36.97;;;17.70;;
82005;SDS011;71529;47.484;19.064;2024-02-15T11:23:46;30.70;;;18.23;;
82005;SDS011;71529;47.484;19.064;2024-02-15T11:32:16;23.35;;;16.70;;
82005;SDS011;71529;47.484;19.064;2024-02-15T11:35:05;34.10;;;17.52;;
82005;SDS011;71529;47.484;19.064;2024-02-15T11:37:54;30.85;;;17.35;;
82005;SDS011;71529;47.484;19.064;2024-02-15T11:40:59;25.55;;;17.10;;
82005;SDS011;71529;47.484;19.064;2024-02-15T11:43:48;28.02;;;16.65;;
82005;SDS011;71529;47.484;19.064;2024-02-15T11:46:22;29.67;;;17.05;;
82005;SDS011;71529;47.484;19.064;2024-02-15T11:48:56;30.95;;;18.67;;
82005;SDS011;71529;47.484;19.064;2024-02-15T11:51:26;29.20;;;18.55;;
82005;SDS011;71529;47.484;19.064;2024-02-15T11:54:01;26.92;;;16.30;;
82005;SDS011;71529;47.484;19.064;2024-02-15T11:56:49;25.85;;;17.35;;
82005;SDS011;71529;47.484;19.064;2024-02-15T11:59:39;32.92;;;18.42;;
82005;SDS011;71529;47.484;19.064;2024-02-15T12:02:19;29.20;;;19.17;;
82005;SDS011;71529;47.484;19.064;2024-02-15T12:05:01;23.48;;;16.25;;
82005;SDS011;71529;47.484;19.064;2024-02-15T12:07:45;26.35;;;14.15;;
82005;SDS011;71529;47.484;19.064;2024-02-15T12:10:28;29.45;;;16.30;;
82005;SDS011;71529;47.484;19.064;2024-02-15T12:13:10;27.80;;;15.95;;
82005;SDS011;71529;47.484;19.064;2024-02-15T12:15:56;24.73;;;16.55;;
82005;SDS011;71529;47.484;19.064;2024-02-15T12:18:38;21.92;;;14.90;;
82005;SDS011;71529;47.484;19.064;2024-02-15T12:21:08;28.05;;;18.60;;
82005;SDS011;71529;47.484;19.064;2024-02-15T12:23:38;29.98;;;17.92;;
82005;SDS011;71529;47.484;19.064;2024-02-15T12:26:09;31.70;;;15.38;;
82005;SDS011;71529;47.484;19.064;2024-02-15T12:28:40;26.83;;;15.30;;
82005;SDS011;71529;47.484;19.064;2024-02-15T12:31:11;22.48;;;15.25;;
82005;SDS011;71529;47.484;19.064;2024-02-15T12:33:40;26.98;;;15.00;;
82005;SDS011;71529;47.484;19.064;2024-02-15T12:36:09;23.65;;;15.18;;
82005;SDS011;71529;47.484;19.064;2024-02-15T12:38:38;30.95;;;16.30;;
82005;SDS011;71529;47.484;19.064;2024-02-15T12:41:20;25.58;;;16.50;;
82005;SDS011;71529;47.484;19.064;2024-02-15T12:43:52;37.63;;;22.95;;
82005;SDS011;71529;47.484;19.064;2024-02-15T12:46:22;26.35;;;17.45;;
82005;SDS011;71529;47.484;19.064;2024-02-15T12:49:05;29.85;;;16.75;;
82005;SDS011;71529;47.484;19.064;2024-02-15T12:51:39;25.73;;;15.10;;
82005;SDS011;71529;47.484;19.064;2024-02-15T12:54:08;22.00;;;15.93;;
82005;SDS011;71529;47.484;19.064;2024-02-15T12:56:42;21.70;;;15.05;;
82005;SDS011;71529;47.484;19.064;2024-02-15T12:59:11;26.77;;;16.58;;
82005;SDS011;71529;47.484;19.064;2024-02-15T13:01:40;21.50;;;13.60;;
82005;SDS011;71529;47.484;19.064;2024-02-15T13:04:09;18.35;;;12.77;;
82005;SDS011;71529;47.484;19.064;2024-02-15T13:06:40;20.55;;;12.82;;
82005;SDS011;71529;47.484;19.064;2024-02-15T13:09:09;18.90;;;13.93;;
82005;SDS011;71529;47.484;19.064;2024-02-15T13:11:38;19.98;;;12.73;;
82005;SDS011;71529;47.484;19.064;2024-02-15T13:14:12;20.48;;;13.07;;
82005;SDS011;71529;47.484;19.064;2024-02-15T13:16:41;27.17;;;12.93;;
82005;SDS011;71529;47.484;19.064;2024-02-15T13:19:12;18.58;;;12.63;;
82005;SDS011;71529;47.484;19.064;2024-02-15T13:21:41;17.45;;;11.15;;
82005;SDS011;71529;47.484;19.064;2024-02-15T13:24:10;20.02;;;12.30;;
82005;SDS011;71529;47.484;19.064;2024-02-15T13:26:43;21.13;;;12.40;;
82005;SDS011;71529;47.484;19.064;2024-02-15T13:29:13;23.23;;;11.85;;
82005;SDS011;71529;47.484;19.064;2024-02-15T13:31:42;18.65;;;12.18;;
82005;SDS011;71529;47.484;19.064;2024-02-15T13:34:11;19.02;;;11.60;;
82005;SDS011;71529;47.484;19.064;2024-02-15T13:36:39;19.73;;;12.60;;
82005;SDS011;71529;47.484;19.064;2024-02-15T13:39:08;21.92;;;12.13;;
82005;SDS011;71529;47.484;19.064;2024-02-15T13:41:37;19.17;;;11.55;;
82005;SDS011;71529;47.484;19.064;2024-02-15T13:44:08;18.95;;;11.98;;
82005;SDS011;71529;47.484;19.064;2024-02-15T13:46:37;18.70;;;13.10;;
82005;SDS011;71529;47.484;19.064;2024-02-15T13:49:08;24.25;;;13.40;;
82005;SDS011;71529;47.484;19.064;2024-02-15T13:51:38;20.23;;;12.98;;
82005;SDS011;71529;47.484;19.064;2024-02-15T13:54:07;23.95;;;13.35;;
82005;SDS011;71529;47.484;19.064;2024-02-15T13:56:37;22.45;;;14.52;;
82005;SDS011;71529;47.484;19.064;2024-02-15T13:59:09;21.17;;;12.93;;
82005;SDS011;71529;47.484;19.064;2024-02-15T14:01:44;20.38;;;13.70;;
82005;SDS011;71529;47.484;19.064;2024-02-15T14:04:14;20.70;;;14.07;;
82005;SDS011;71529;47.484;19.064;2024-02-15T14:06:44;21.50;;;14.93;;
82005;SDS011;71529;47.484;19.064;2024-02-15T14:09:14;26.30;;;14.73;;
82005;SDS011;71529;47.484;19.064;2024-02-15T14:11:45;27.83;;;13.95;;
82005;SDS011;71529;47.484;19.064;2024-02-15T14:14:20;21.27;;;14.10;;
82005;SDS011;71529;47.484;19.064;2024-02-15T14:16:51;32.97;;;18.35;;
82005;SDS011;71529;47.484;19.064;2024-02-15T14:19:25;29.65;;;18.25;;
82005;SDS011;71529;47.484;19.064;2024-02-15T14:21:54;20.50;;;14.85;;
82005;SDS011;71529;47.484;19.064;2024-02-15T14:24:23;23.98;;;16.20;;
82005;SDS011;71529;47.484;19.064;2024-02-15T14:26:52;28.08;;;17.60;;
82005;SDS011;71529;47.484;19.064;2024-02-15T14:29:24;20.83;;;13.60;;
82005;SDS011;71529;47.484;19.064;2024-02-15T14:31:59;23.45;;;14.68;;
82005;SDS011;71529;47.484;19.064;2024-02-15T14:34:41;24.02;;;13.35;;
82005;SDS011;71529;47.484;19.064;2024-02-15T14:37:10;24.73;;;14.18;;
82005;SDS011;71529;47.484;19.064;2024-02-15T14:39:39;24.42;;;14.90;;
82005;SDS011;71529;47.484;19.064;2024-02-15T14:42:08;25.90;;;15.55;;